createdAt,value
2018-03-04T00:00:22.934Z,-7.24
2018-03-04T00:01:22.933Z,-7.23
2018-03-04T00:02:22.939Z,-7.19
2018-03-04T00:03:22.880Z,-7.16
2018-03-04T00:04:22.871Z,-7.19
2018-03-04T00:05:22.850Z,-7.24
2018-03-04T00:06:22.837Z,-7.29
2018-03-04T00:07:22.828Z,-7.30
2018-03-04T00:08:22.851Z,-7.29
2018-03-04T00:09:22.801Z,-7.27
2018-03-04T00:10:22.783Z,-7.19
2018-03-04T00:11:22.772Z,-7.20
2018-03-04T00:12:22.761Z,-7.20
2018-03-04T00:13:22.739Z,-7.24
2018-03-04T00:14:22.753Z,-7.30
2018-03-04T00:15:22.767Z,-7.27
2018-03-04T00:16:22.701Z,-7.24
2018-03-04T00:17:22.686Z,-7.31
2018-03-04T00:18:22.677Z,-7.39
2018-03-04T00:19:22.677Z,-7.51
2018-03-04T00:20:22.643Z,-7.51
2018-03-04T00:21:22.630Z,-7.42
2018-03-04T00:22:22.618Z,-7.51
2018-03-04T00:23:22.597Z,-7.39
2018-03-04T00:24:22.591Z,-7.33
2018-03-04T00:25:22.571Z,-7.37
2018-03-04T00:26:22.557Z,-7.34
2018-03-04T00:27:22.568Z,-7.38
2018-03-04T00:28:22.531Z,-7.37
2018-03-04T00:29:22.520Z,-7.34
2018-03-04T00:30:22.504Z,-7.31
2018-03-04T00:31:22.523Z,-7.26
2018-03-04T00:32:22.486Z,-7.31
2018-03-04T00:33:22.459Z,-7.39
2018-03-04T00:34:22.447Z,-7.27
2018-03-04T00:35:22.481Z,-7.37
2018-03-04T00:36:22.456Z,-7.39
2018-03-04T00:37:22.403Z,-7.31
2018-03-04T00:38:22.398Z,-7.37
2018-03-04T00:39:22.372Z,-7.37
2018-03-04T00:40:22.368Z,-7.37
2018-03-04T00:41:22.347Z,-7.37
2018-03-04T00:42:22.332Z,-7.39
2018-03-04T00:43:22.316Z,-7.31
2018-03-04T00:44:22.318Z,-7.39
2018-03-04T00:45:22.288Z,-7.30
2018-03-04T00:46:22.277Z,-7.26
2018-03-04T00:47:22.268Z,-7.19
2018-03-04T00:48:22.273Z,-7.16
2018-03-04T00:49:22.232Z,-7.12
2018-03-04T00:50:22.218Z,-7.23
2018-03-04T00:51:22.205Z,-7.19
2018-03-04T00:52:22.190Z,-7.12
2018-03-04T00:53:22.222Z,-7.05
2018-03-04T00:54:22.162Z,-7.09
2018-03-04T00:55:22.147Z,-7.09
2018-03-04T00:56:22.133Z,-6.97
2018-03-04T00:57:22.121Z,-7.05
2018-03-04T00:58:22.106Z,-6.91
2018-03-04T00:59:22.089Z,-7.03
2018-03-04T01:00:22.076Z,-6.97
2018-03-04T01:01:22.068Z,-7.06
2018-03-04T01:02:22.049Z,-6.97
2018-03-04T01:03:22.046Z,-6.95
2018-03-04T01:04:22.023Z,-6.97
2018-03-04T01:05:22.013Z,-6.99
2018-03-04T01:06:21.993Z,-6.95
2018-03-04T01:07:21.979Z,-6.88
2018-03-04T01:08:21.965Z,-6.97
2018-03-04T01:09:21.952Z,-6.77
2018-03-04T01:10:21.937Z,-6.79
2018-03-04T01:11:21.924Z,-6.71
2018-03-04T01:12:21.910Z,-6.67
2018-03-04T01:13:21.896Z,-6.69
2018-03-04T01:14:21.888Z,-6.67
2018-03-04T01:15:21.867Z,-6.66
2018-03-04T01:16:21.853Z,-6.67
2018-03-04T01:17:21.842Z,-6.61
2018-03-04T01:18:21.828Z,-6.67
2018-03-04T01:19:21.813Z,-6.63
2018-03-04T01:20:21.811Z,-6.61
2018-03-04T01:21:21.785Z,-6.55
2018-03-04T01:22:21.774Z,-6.69
2018-03-04T01:23:21.759Z,-6.70
2018-03-04T01:24:21.746Z,-6.66
2018-03-04T01:25:21.735Z,-6.71
2018-03-04T01:26:21.720Z,-6.76
2018-03-04T01:27:21.702Z,-6.74
2018-03-04T01:28:21.692Z,-6.76
2018-03-04T01:29:21.678Z,-6.82
2018-03-04T01:30:21.664Z,-6.99
2018-03-04T01:31:21.649Z,-6.79
2018-03-04T01:32:21.635Z,-6.82
2018-03-04T01:33:21.623Z,-6.85
2018-03-04T01:34:21.610Z,-6.74
2018-03-04T01:35:21.596Z,-6.77
2018-03-04T01:36:21.582Z,-6.70
2018-03-04T01:37:21.568Z,-6.69
2018-03-04T01:38:21.555Z,-6.66
2018-03-04T01:39:21.542Z,-6.64
2018-03-04T01:40:21.529Z,-6.50
2018-03-04T01:41:21.515Z,-6.54
2018-03-04T01:42:21.501Z,-6.47
2018-03-04T01:43:21.487Z,-6.52
2018-03-04T01:44:21.474Z,-6.55
2018-03-04T01:45:21.460Z,-6.55
2018-03-04T01:46:21.448Z,-6.54
2018-03-04T01:47:21.433Z,-6.63
2018-03-04T01:48:21.425Z,-6.69
2018-03-04T01:49:21.406Z,-6.61
2018-03-04T01:50:21.391Z,-6.66
2018-03-04T01:51:21.375Z,-6.67
2018-03-04T01:52:21.366Z,-6.70
2018-03-04T01:53:21.352Z,-6.66
2018-03-04T01:54:21.337Z,-6.59
2018-03-04T01:55:21.322Z,-6.59
2018-03-04T01:56:21.322Z,-6.52
2018-03-04T01:57:21.304Z,-6.52
2018-03-04T01:58:21.286Z,-6.54
2018-03-04T01:59:21.274Z,-6.58
2018-03-04T02:00:21.258Z,-6.64
2018-03-04T02:01:21.247Z,-6.61
2018-03-04T02:02:21.230Z,-6.63
2018-03-04T02:03:21.220Z,-6.69
2018-03-04T02:04:21.205Z,-6.67
2018-03-04T02:05:21.193Z,-6.70
2018-03-04T02:06:21.180Z,-6.59
2018-03-04T02:07:21.180Z,-6.71
2018-03-04T02:08:21.152Z,-6.66
2018-03-04T02:09:21.137Z,-6.55
2018-03-04T02:10:21.145Z,-6.58
2018-03-04T02:11:21.110Z,-6.54
2018-03-04T02:12:21.099Z,-6.54
2018-03-04T02:13:21.089Z,-6.47
2018-03-04T02:14:21.072Z,-6.42
2018-03-04T02:15:21.060Z,-6.50
2018-03-04T02:16:21.047Z,-6.39
2018-03-04T02:17:21.030Z,-6.40
2018-03-04T02:18:21.023Z,-6.21
2018-03-04T02:19:21.037Z,-6.21
2018-03-04T02:20:20.995Z,-6.27
2018-03-04T02:21:20.979Z,-6.18
2018-03-04T02:22:20.968Z,-6.23
2018-03-04T02:23:20.955Z,-6.21
2018-03-04T02:24:20.939Z,-6.19
2018-03-04T02:25:20.932Z,-6.19
2018-03-04T02:26:20.911Z,-6.19
2018-03-04T02:27:20.900Z,-6.18
2018-03-04T02:28:20.889Z,-6.11
2018-03-04T02:29:20.877Z,-6.06
2018-03-04T02:30:20.860Z,-6.12
2018-03-04T02:31:20.845Z,-6.08
2018-03-04T02:32:20.848Z,-5.82
2018-03-04T02:33:20.822Z,-5.69
2018-03-04T02:34:20.808Z,-5.43
2018-03-04T02:35:20.795Z,-4.98
2018-03-04T02:36:20.785Z,-4.51
2018-03-04T02:37:20.769Z,-3.70
2018-03-04T02:38:20.769Z,-3.25
2018-03-04T02:39:20.742Z,-2.68
2018-03-04T02:40:20.731Z,-2.42
2018-03-04T02:41:20.742Z,-2.17
2018-03-04T02:42:20.706Z,-1.81
2018-03-04T02:43:20.693Z,-1.57
2018-03-04T02:44:20.679Z,-1.53
2018-03-04T02:45:20.674Z,-1.31
2018-03-04T02:46:20.660Z,-1.25
2018-03-04T02:47:20.660Z,-1.07
2018-03-04T02:48:20.634Z,-1.07
2018-03-04T02:49:20.632Z,-1.03
2018-03-04T02:50:20.609Z,-0.99
2018-03-04T02:51:20.598Z,-0.89
2018-03-04T02:52:20.615Z,-0.80
2018-03-04T02:53:20.576Z,-0.69
2018-03-04T02:54:20.566Z,-0.68
2018-03-04T02:55:20.561Z,-0.65
2018-03-04T02:56:20.559Z,-0.68
2018-03-04T02:57:20.535Z,-0.65
2018-03-04T02:58:20.519Z,-0.65
2018-03-04T02:59:20.508Z,-0.68
2018-03-04T03:00:20.511Z,-0.55
2018-03-04T03:01:20.489Z,-0.55
2018-03-04T03:02:20.483Z,-0.54
2018-03-04T03:03:20.467Z,-0.57
2018-03-04T03:04:20.488Z,-0.54
2018-03-04T03:05:20.461Z,-0.60
2018-03-04T03:06:20.435Z,-0.57
2018-03-04T03:07:20.440Z,-0.66
2018-03-04T03:08:20.421Z,-0.62
2018-03-04T03:09:20.405Z,-0.68
2018-03-04T03:10:20.429Z,-0.68
2018-03-04T03:11:20.420Z,-0.66
2018-03-04T03:12:20.378Z,-0.63
2018-03-04T03:13:20.367Z,-0.66
2018-03-04T03:14:20.355Z,-0.60
2018-03-04T03:15:20.343Z,-0.60
2018-03-04T03:16:20.356Z,-0.70
2018-03-04T03:17:20.328Z,-0.63
2018-03-04T03:18:20.315Z,-0.65
2018-03-04T03:19:20.303Z,-0.65
2018-03-04T03:20:20.295Z,-0.65
2018-03-04T03:21:20.296Z,-0.77
2018-03-04T03:22:20.292Z,-0.72
2018-03-04T03:23:20.305Z,-0.63
2018-03-04T03:24:20.260Z,-0.68
2018-03-04T03:25:20.274Z,-0.75
2018-03-04T03:26:20.240Z,-0.68
2018-03-04T03:27:20.236Z,-0.66
2018-03-04T03:28:20.218Z,-0.77
2018-03-04T03:29:20.212Z,-0.68
2018-03-04T03:30:20.208Z,-0.70
2018-03-04T03:31:20.192Z,-0.75
2018-03-04T03:32:20.184Z,-0.69
2018-03-04T03:33:20.178Z,-0.69
2018-03-04T03:34:20.169Z,-0.72
2018-03-04T03:35:20.151Z,-0.63
2018-03-04T03:36:20.142Z,-0.68
2018-03-04T03:37:20.136Z,-0.60
2018-03-04T03:38:20.123Z,-0.65
2018-03-04T03:39:20.116Z,-0.63
2018-03-04T03:40:20.106Z,-0.69
2018-03-04T03:41:20.126Z,-0.69
2018-03-04T03:42:20.126Z,-0.63
2018-03-04T03:43:20.131Z,-0.70
2018-03-04T03:44:20.069Z,-0.69
2018-03-04T03:45:20.058Z,-0.72
2018-03-04T03:46:20.052Z,-0.73
2018-03-04T03:47:20.039Z,-0.69
2018-03-04T03:48:20.030Z,-0.68
2018-03-04T03:49:20.022Z,-0.66
2018-03-04T03:50:20.018Z,-0.66
2018-03-04T03:51:20.003Z,-0.62
2018-03-04T03:52:19.992Z,-0.54
2018-03-04T03:53:19.986Z,-0.63
2018-03-04T03:54:19.976Z,-0.51
2018-03-04T03:55:20.014Z,-0.51
2018-03-04T03:56:19.967Z,-0.41
2018-03-04T03:57:20.006Z,-0.42
2018-03-04T03:58:19.949Z,-0.41
2018-03-04T04:01:48.086Z,-0.34
2018-03-04T04:02:46.542Z,-0.36
2018-03-04T04:05:04.428Z,-0.24
2018-03-04T04:05:40.839Z,-0.31
2018-03-04T04:08:31.438Z,-0.23
2018-03-04T04:15:08.630Z,-0.22
2018-03-04T04:16:08.503Z,-0.24
2018-03-04T04:17:08.484Z,-0.24
2018-03-04T04:18:33.777Z,-0.24
2018-03-04T04:34:30.471Z,-0.13
2018-03-04T04:35:30.461Z,-0.09
2018-03-04T04:37:24.827Z,-0.06
2018-03-04T04:38:24.840Z,-0.12
2018-03-04T04:39:24.816Z,-0.08
2018-03-04T04:40:24.855Z,-0.09
2018-03-04T04:41:24.820Z,-0.11
2018-03-04T04:42:24.751Z,-0.12
2018-03-04T04:43:24.759Z,-0.15
2018-03-04T04:44:24.786Z,-0.12
2018-03-04T04:45:24.725Z,-0.11
2018-03-04T04:46:24.823Z,-0.09
2018-03-04T04:47:24.830Z,-0.06
2018-03-04T04:48:24.710Z,-0.08
2018-03-04T04:49:24.735Z,-0.08
2018-03-04T04:50:24.689Z,0.03
2018-03-04T04:51:24.703Z,-0.09
2018-03-04T04:52:24.746Z,-0.11
2018-03-04T04:53:24.681Z,-0.11
2018-03-04T04:54:24.656Z,-0.11
2018-03-04T04:55:24.642Z,-0.13
2018-03-04T04:56:24.642Z,-0.15
2018-03-04T04:57:24.648Z,-0.22
2018-03-04T04:58:24.618Z,-0.23
2018-03-04T04:59:24.646Z,-0.30
2018-03-04T05:00:24.673Z,-0.31
2018-03-04T05:01:24.624Z,-0.44
2018-03-04T05:02:24.590Z,-0.47
2018-03-04T05:03:24.580Z,-0.42
2018-03-04T05:04:24.579Z,-0.48
2018-03-04T05:05:24.650Z,-0.57
2018-03-04T05:06:24.555Z,-0.54
2018-03-04T05:07:24.539Z,-0.70
2018-03-04T05:08:24.554Z,-0.62
2018-03-04T05:09:24.523Z,-0.63
2018-03-04T05:10:24.516Z,-0.63
2018-03-04T05:11:24.541Z,-0.60
2018-03-04T05:12:24.492Z,-0.63
2018-03-04T05:13:24.482Z,-0.63
2018-03-04T05:14:31.450Z,-0.52
2018-03-04T05:15:24.471Z,-0.52
2018-03-04T05:16:24.558Z,-0.50
2018-03-04T05:17:24.546Z,-0.47
2018-03-04T05:18:24.592Z,-0.42
2018-03-04T05:19:25.437Z,-0.31
2018-03-04T05:20:24.559Z,-0.26
2018-03-04T05:21:24.668Z,-0.19
2018-03-04T05:22:26.463Z,-0.19
2018-03-04T05:23:44.468Z,-0.16
2018-03-04T05:25:24.322Z,-0.06
2018-03-04T05:26:24.277Z,-0.11
2018-03-04T05:27:24.256Z,-0.05
2018-03-04T05:28:24.247Z,-0.01
2018-03-04T05:29:24.242Z,0.05
2018-03-04T05:30:24.232Z,0.02
2018-03-04T05:31:24.244Z,0.07
2018-03-04T05:32:24.265Z,0.05
2018-03-04T05:33:24.287Z,-0.05
2018-03-04T05:34:24.293Z,-0.04
2018-03-04T05:35:24.207Z,0.02
2018-03-04T05:36:24.260Z,-0.01
2018-03-04T05:37:24.192Z,-0.09
2018-03-04T05:40:21.655Z,0.00
2018-03-04T05:43:02.544Z,0.02
2018-03-04T05:44:02.520Z,0.12
2018-03-04T05:45:56.885Z,0.05
2018-03-04T05:46:56.825Z,0.07
2018-03-04T05:48:51.165Z,0.15
2018-03-04T05:49:51.231Z,0.20
2018-03-04T05:51:45.630Z,0.21
2018-03-04T05:52:45.626Z,0.12
2018-03-04T05:54:39.944Z,0.21
2018-03-04T05:55:39.927Z,0.24
2018-03-04T05:57:36.849Z,0.12
2018-03-04T05:58:35.298Z,0.21
2018-03-04T05:59:35.212Z,0.24
2018-03-04T06:00:35.182Z,0.20
2018-03-04T06:01:35.151Z,0.16
2018-03-04T06:02:35.156Z,0.23
2018-03-04T06:03:35.143Z,0.12
2018-03-04T06:04:35.124Z,0.25
2018-03-04T06:05:35.127Z,0.25
2018-03-04T06:06:35.105Z,0.18
2018-03-04T06:07:35.094Z,0.18
2018-03-04T06:08:35.092Z,0.16
2018-03-04T06:09:35.078Z,0.15
2018-03-04T06:10:35.068Z,0.16
2018-03-04T06:11:35.098Z,0.12
2018-03-04T06:12:35.058Z,0.15
2018-03-04T06:13:35.051Z,0.09
2018-03-04T06:14:35.036Z,0.23
2018-03-04T06:15:35.038Z,0.21
2018-03-04T06:16:35.030Z,0.25
2018-03-04T06:17:35.009Z,0.12
2018-03-04T06:18:35.005Z,0.25
2018-03-04T06:19:34.990Z,0.23
2018-03-04T06:20:34.985Z,0.21
2018-03-04T06:21:34.974Z,0.20
2018-03-04T06:22:34.971Z,0.24
2018-03-04T06:23:34.957Z,0.25
2018-03-04T06:24:34.951Z,0.24
2018-03-04T06:25:34.943Z,0.31
2018-03-04T06:26:34.931Z,0.15
2018-03-04T06:27:34.922Z,0.33
2018-03-04T06:28:34.919Z,0.36
2018-03-04T06:29:34.908Z,0.23
2018-03-04T06:30:34.896Z,0.27
2018-03-04T06:31:34.892Z,0.41
2018-03-04T06:32:34.882Z,0.27
2018-03-04T06:33:34.873Z,0.41
2018-03-04T06:34:34.933Z,0.28
2018-03-04T06:35:34.856Z,0.33
2018-03-04T06:36:34.851Z,0.36
2018-03-04T06:37:34.840Z,0.39
2018-03-04T06:38:34.832Z,0.39
2018-03-04T06:39:34.824Z,0.42
2018-03-04T06:40:34.816Z,0.45
2018-03-04T06:41:34.808Z,0.43
2018-03-04T06:42:34.797Z,0.49
2018-03-04T06:43:34.790Z,0.41
2018-03-04T06:44:34.786Z,0.41
2018-03-04T06:45:34.904Z,0.43
2018-03-04T06:46:34.770Z,0.45
2018-03-04T06:47:34.757Z,0.43
2018-03-04T06:48:34.747Z,0.39
2018-03-04T06:49:34.742Z,0.53
2018-03-04T06:50:34.733Z,0.43
2018-03-04T06:51:34.736Z,0.57
2018-03-04T06:52:34.718Z,0.58
2018-03-04T06:53:34.710Z,0.52
2018-03-04T06:54:34.866Z,0.62
2018-03-04T06:55:34.695Z,0.48
2018-03-04T06:56:34.686Z,0.58
2018-03-04T06:57:34.680Z,0.52
2018-03-04T06:58:34.689Z,0.58
2018-03-04T06:59:34.661Z,0.68
2018-03-04T07:00:34.654Z,0.70
2018-03-04T07:01:34.655Z,0.65
2018-03-04T07:02:34.657Z,0.58
2018-03-04T07:03:34.630Z,0.60
2018-03-04T07:04:34.618Z,0.57
2018-03-04T07:05:34.616Z,0.71
2018-03-04T07:06:34.686Z,0.61
2018-03-04T07:07:34.595Z,0.52
2018-03-04T07:08:34.589Z,0.48
2018-03-04T07:09:34.598Z,0.53
2018-03-04T07:10:34.574Z,0.60
2018-03-04T07:11:34.566Z,0.62
2018-03-04T07:12:34.560Z,0.60
2018-03-04T07:13:34.550Z,0.49
2018-03-04T07:14:34.542Z,0.67
2018-03-04T07:15:34.535Z,0.68
2018-03-04T07:16:34.531Z,0.58
2018-03-04T07:17:34.523Z,0.67
2018-03-04T07:18:34.511Z,0.68
2018-03-04T07:19:34.503Z,0.71
2018-03-04T07:20:34.495Z,0.75
2018-03-04T07:21:34.488Z,0.86
2018-03-04T07:22:34.480Z,0.85
2018-03-04T07:23:34.470Z,0.88
2018-03-04T07:24:34.465Z,0.90
2018-03-04T07:25:34.467Z,0.96
2018-03-04T07:26:34.448Z,1.01
2018-03-04T07:27:34.441Z,1.06
2018-03-04T07:28:34.434Z,1.10
2018-03-04T07:29:34.429Z,1.21
2018-03-04T07:30:34.425Z,1.14
2018-03-04T07:31:34.412Z,1.19
2018-03-04T07:32:34.405Z,1.28
2018-03-04T07:33:34.398Z,1.32
2018-03-04T07:34:34.392Z,1.26
2018-03-04T07:35:34.383Z,1.37
2018-03-04T07:36:34.376Z,1.54
2018-03-04T07:37:34.370Z,2.22
2018-03-04T07:38:34.361Z,2.23
2018-03-04T07:39:34.357Z,2.95
2018-03-04T07:40:34.354Z,3.07
2018-03-04T07:41:34.343Z,3.76
2018-03-04T07:42:34.335Z,3.79
2018-03-04T07:43:34.331Z,4.29
2018-03-04T07:44:34.325Z,4.42
2018-03-04T07:45:34.328Z,4.37
2018-03-04T07:46:34.314Z,3.71
2018-03-04T07:47:34.310Z,3.44
2018-03-04T07:48:34.304Z,3.30
2018-03-04T07:49:34.302Z,3.20
2018-03-04T07:50:34.296Z,3.09
2018-03-04T07:51:34.289Z,2.88
2018-03-04T07:52:34.413Z,2.71
2018-03-04T07:53:34.287Z,2.48
2018-03-04T07:54:34.276Z,2.48
2018-03-04T07:55:34.274Z,2.41
2018-03-04T07:56:34.268Z,2.38
2018-03-04T07:57:34.265Z,2.44
2018-03-04T07:58:34.262Z,2.38
2018-03-04T07:59:34.313Z,2.33
2018-03-04T08:00:34.247Z,2.35
2018-03-04T08:01:34.252Z,2.28
2018-03-04T08:02:34.243Z,2.44
2018-03-04T08:03:34.232Z,2.37
2018-03-04T08:04:34.228Z,2.33
2018-03-04T08:05:34.225Z,2.37
2018-03-04T08:06:34.214Z,2.41
2018-03-04T08:07:34.211Z,2.38
2018-03-04T08:08:34.205Z,2.53
2018-03-04T08:09:34.226Z,2.46
2018-03-04T08:10:34.214Z,2.49
2018-03-04T08:11:34.191Z,2.48
2018-03-04T08:12:34.190Z,2.53
2018-03-04T08:13:34.181Z,2.46
2018-03-04T08:14:34.175Z,2.51
2018-03-04T08:15:34.189Z,2.51
2018-03-04T08:16:34.168Z,2.66
2018-03-04T08:17:34.163Z,2.61
2018-03-04T08:18:34.183Z,2.64
2018-03-04T08:19:34.149Z,2.58
2018-03-04T08:20:34.143Z,2.64
2018-03-04T08:21:34.139Z,2.64
2018-03-04T08:22:34.138Z,2.69
2018-03-04T08:23:34.130Z,2.69
2018-03-04T08:24:34.123Z,2.71
2018-03-04T08:25:34.123Z,2.69
2018-03-04T08:26:34.134Z,2.82
2018-03-04T08:27:34.107Z,2.82
2018-03-04T08:28:34.197Z,2.77
2018-03-04T08:29:34.102Z,2.77
2018-03-04T08:30:34.092Z,2.70
2018-03-04T08:31:34.086Z,2.77
2018-03-04T08:32:34.084Z,2.73
2018-03-04T08:33:34.098Z,2.81
2018-03-04T08:34:34.073Z,2.77
2018-03-04T08:35:34.063Z,2.76
2018-03-04T08:36:34.058Z,2.79
2018-03-04T08:37:34.056Z,2.84
2018-03-04T08:38:34.051Z,2.91
2018-03-04T08:39:34.058Z,2.92
2018-03-04T08:40:34.037Z,2.88
2018-03-04T08:41:34.032Z,2.88
2018-03-04T08:42:34.029Z,2.92
2018-03-04T08:43:34.021Z,2.89
2018-03-04T08:44:34.017Z,3.02
2018-03-04T08:45:34.021Z,2.95
2018-03-04T08:46:34.005Z,3.02
2018-03-04T08:47:33.999Z,2.95
2018-03-04T08:48:33.995Z,3.03
2018-03-04T08:49:33.992Z,2.98
2018-03-04T08:50:33.981Z,3.03
2018-03-04T08:51:33.984Z,3.06
2018-03-04T08:52:33.974Z,3.15
2018-03-04T08:53:33.966Z,3.24
2018-03-04T08:54:33.962Z,3.30
2018-03-04T08:55:33.957Z,3.34
2018-03-04T08:56:33.953Z,3.40
2018-03-04T08:57:33.948Z,3.40
2018-03-04T08:58:33.944Z,3.43
2018-03-04T08:59:33.935Z,3.42
2018-03-04T09:00:33.931Z,3.33
2018-03-04T09:01:33.928Z,3.36
2018-03-04T09:02:33.921Z,3.31
2018-03-04T09:03:33.914Z,3.20
2018-03-04T09:04:33.912Z,3.15
2018-03-04T09:05:33.932Z,3.28
2018-03-04T09:06:33.899Z,3.27
2018-03-04T09:07:33.910Z,3.23
2018-03-04T09:08:33.885Z,3.23
2018-03-04T09:09:33.902Z,3.20
2018-03-04T09:10:33.879Z,3.34
2018-03-04T09:11:33.887Z,3.27
2018-03-04T09:12:33.875Z,3.39
2018-03-04T09:13:33.863Z,3.34
2018-03-04T09:14:33.858Z,3.25
2018-03-04T09:15:33.855Z,3.28
2018-03-04T09:16:33.846Z,3.33
2018-03-04T09:17:33.845Z,3.42
2018-03-04T09:18:33.837Z,3.31
2018-03-04T09:19:33.919Z,3.30
2018-03-04T09:20:33.831Z,3.46
2018-03-04T09:21:33.827Z,3.43
2018-03-04T09:22:33.829Z,3.36
2018-03-04T09:23:33.813Z,3.39
2018-03-04T09:24:33.812Z,3.47
2018-03-04T09:25:33.818Z,3.43
2018-03-04T09:26:33.800Z,3.43
2018-03-04T09:27:33.796Z,3.44
2018-03-04T09:28:33.789Z,3.42
2018-03-04T09:29:33.783Z,3.57
2018-03-04T09:30:33.792Z,3.57
2018-03-04T09:31:33.775Z,3.46
2018-03-04T09:32:33.773Z,3.54
2018-03-04T09:33:33.767Z,3.60
2018-03-04T09:34:33.761Z,3.58
2018-03-04T09:35:33.757Z,3.60
2018-03-04T09:36:33.768Z,3.62
2018-03-04T09:37:33.751Z,3.62
2018-03-04T09:38:33.742Z,3.61
2018-03-04T09:39:33.736Z,3.54
2018-03-04T09:40:33.736Z,3.58
2018-03-04T09:41:33.732Z,3.68
2018-03-04T09:42:33.724Z,3.64
2018-03-04T09:43:33.726Z,3.70
2018-03-04T09:44:33.715Z,3.71
2018-03-04T09:45:33.714Z,3.68
2018-03-04T09:46:33.714Z,3.82
2018-03-04T09:47:33.701Z,3.67
2018-03-04T09:48:33.708Z,3.76
2018-03-04T09:49:33.693Z,3.71
2018-03-04T09:50:33.692Z,3.86
2018-03-04T09:51:33.686Z,3.89
2018-03-04T09:52:33.680Z,3.89
2018-03-04T09:53:33.674Z,3.88
2018-03-04T09:54:33.670Z,3.85
2018-03-04T09:55:33.666Z,3.80
2018-03-04T09:56:33.663Z,3.85
2018-03-04T09:57:33.664Z,3.89
2018-03-04T09:58:33.653Z,3.89
2018-03-04T09:59:33.650Z,3.92
2018-03-04T10:00:33.645Z,3.98
2018-03-04T10:01:33.640Z,4.15
2018-03-04T10:02:33.636Z,4.24
2018-03-04T10:03:33.635Z,4.34
2018-03-04T10:04:33.625Z,4.36
2018-03-04T10:05:33.622Z,4.34
2018-03-04T10:06:33.633Z,4.33
2018-03-04T10:07:33.610Z,4.50
2018-03-04T10:08:33.718Z,4.57
2018-03-04T10:09:33.606Z,4.51
2018-03-04T10:10:33.607Z,4.42
2018-03-04T10:11:33.598Z,4.47
2018-03-04T10:12:33.595Z,4.58
2018-03-04T10:13:33.768Z,4.55
2018-03-04T10:14:33.762Z,4.44
2018-03-04T10:15:33.602Z,4.69
2018-03-04T10:16:33.579Z,4.67
2018-03-04T10:17:33.593Z,4.79
2018-03-04T10:18:33.573Z,4.76
2018-03-04T10:19:33.565Z,4.91
2018-03-04T10:20:33.565Z,4.99
2018-03-04T10:21:33.559Z,5.01
2018-03-04T10:22:33.557Z,5.10
2018-03-04T10:23:33.551Z,5.07
2018-03-04T10:24:33.560Z,5.14
2018-03-04T10:25:33.551Z,5.12
2018-03-04T10:26:33.554Z,5.27
2018-03-04T10:27:33.539Z,5.25
2018-03-04T10:28:33.537Z,5.23
2018-03-04T10:29:33.532Z,5.07
2018-03-04T10:30:33.530Z,5.04
2018-03-04T10:31:33.550Z,5.04
2018-03-04T10:32:33.528Z,4.95
2018-03-04T10:33:33.538Z,4.92
2018-03-04T10:34:33.560Z,5.07
2018-03-04T10:35:33.516Z,5.10
2018-03-04T10:36:33.513Z,5.30
2018-03-04T10:37:33.519Z,5.25
2018-03-04T10:38:33.533Z,5.34
2018-03-04T10:39:33.511Z,5.53
2018-03-04T10:40:33.523Z,5.66
2018-03-04T10:41:33.502Z,5.75
2018-03-04T10:42:33.489Z,5.82
2018-03-04T10:43:42.360Z,5.92
2018-03-04T10:45:27.881Z,6.16
2018-03-04T10:46:27.864Z,6.30
2018-03-04T10:48:22.254Z,6.90
2018-03-04T10:49:22.254Z,7.27
2018-03-04T10:51:16.608Z,7.84
2018-03-04T10:52:16.674Z,7.85
2018-03-04T10:54:11.123Z,8.37
2018-03-04T10:55:10.958Z,8.42
2018-03-04T10:57:06.434Z,8.57
2018-03-04T10:58:06.291Z,8.69
2018-03-04T10:59:06.351Z,8.91
2018-03-04T11:00:06.333Z,9.09
2018-03-04T11:01:06.316Z,9.18
2018-03-04T11:02:06.347Z,9.31
2018-03-04T11:03:06.282Z,9.06
2018-03-04T11:04:06.284Z,9.02
2018-03-04T11:05:06.292Z,8.91
2018-03-04T11:06:06.279Z,8.78
2018-03-04T11:07:06.287Z,8.72
2018-03-04T11:08:06.280Z,8.87
2018-03-04T11:09:06.280Z,8.91
2018-03-04T11:10:06.279Z,9.02
2018-03-04T11:11:06.282Z,8.91
2018-03-04T11:12:06.277Z,9.15
2018-03-04T11:13:06.281Z,9.20
2018-03-04T11:14:06.278Z,9.24
2018-03-04T11:15:06.277Z,9.39
2018-03-04T11:16:06.280Z,9.57
2018-03-04T11:17:06.277Z,9.70
2018-03-04T11:18:06.280Z,9.99
2018-03-04T11:19:06.279Z,10.03
2018-03-04T11:20:06.282Z,10.25
2018-03-04T11:21:06.281Z,10.30
2018-03-04T11:22:06.278Z,10.53
2018-03-04T11:23:06.286Z,10.53
2018-03-04T11:24:06.296Z,10.55
2018-03-04T11:25:06.272Z,10.58
2018-03-04T11:26:06.273Z,10.34
2018-03-04T11:27:06.274Z,10.47
2018-03-04T11:28:06.275Z,10.46
2018-03-04T11:29:06.273Z,10.59
2018-03-04T11:30:06.274Z,10.46
2018-03-04T11:31:06.282Z,10.62
2018-03-04T11:32:06.285Z,10.71
2018-03-04T11:33:06.273Z,10.83
2018-03-04T11:34:06.275Z,10.76
2018-03-04T11:35:06.276Z,10.65
2018-03-04T11:36:06.274Z,10.73
2018-03-04T11:37:06.274Z,10.88
2018-03-04T11:38:06.276Z,10.91
2018-03-04T11:39:06.276Z,10.46
2018-03-04T11:40:06.277Z,10.53
2018-03-04T11:41:06.278Z,10.63
2018-03-04T11:42:06.278Z,10.46
2018-03-04T11:43:06.283Z,10.51
2018-03-04T11:44:06.278Z,10.47
2018-03-04T11:45:06.282Z,10.42
2018-03-04T11:46:06.283Z,10.34
2018-03-04T11:47:06.283Z,10.47
2018-03-04T11:48:06.309Z,10.56
2018-03-04T11:49:06.284Z,10.55
2018-03-04T11:50:06.285Z,10.28
2018-03-04T11:51:06.290Z,10.15
2018-03-04T11:52:06.316Z,10.12
2018-03-04T11:53:06.292Z,10.12
2018-03-04T11:54:06.287Z,10.15
2018-03-04T11:55:06.312Z,10.25
2018-03-04T11:56:06.291Z,10.14
2018-03-04T11:57:06.289Z,10.25
2018-03-04T11:58:06.290Z,10.19
2018-03-04T11:59:06.293Z,10.07
2018-03-04T12:00:06.286Z,9.86
2018-03-04T12:01:06.342Z,9.83
2018-03-04T12:02:06.292Z,9.71
2018-03-04T12:03:06.305Z,9.82
2018-03-04T12:04:06.325Z,9.75
2018-03-04T12:05:06.296Z,9.81
2018-03-04T12:06:06.325Z,9.61
2018-03-04T12:07:06.306Z,9.56
2018-03-04T12:08:06.291Z,9.63
2018-03-04T12:09:06.296Z,9.73
2018-03-04T12:10:06.295Z,9.66
2018-03-04T12:11:06.327Z,9.57
2018-03-04T12:12:06.291Z,9.43
2018-03-04T12:13:06.323Z,9.10
2018-03-04T12:14:06.301Z,8.87
2018-03-04T12:15:06.299Z,8.63
2018-03-04T12:16:06.309Z,8.17
2018-03-04T12:17:06.292Z,8.03
2018-03-04T12:18:06.289Z,7.77
2018-03-04T12:19:06.382Z,7.69
2018-03-04T12:20:06.297Z,7.72
2018-03-04T12:21:06.293Z,7.62
2018-03-04T12:22:06.305Z,7.52
2018-03-04T12:23:06.291Z,7.45
2018-03-04T12:24:06.296Z,7.52
2018-03-04T12:25:06.335Z,7.50
2018-03-04T12:26:06.286Z,7.41
2018-03-04T12:27:06.282Z,7.29
2018-03-04T12:28:06.288Z,7.31
2018-03-04T12:29:06.278Z,7.38
2018-03-04T12:30:06.277Z,7.40
2018-03-04T12:31:06.276Z,7.49
2018-03-04T12:32:06.279Z,7.69
2018-03-04T12:33:06.292Z,7.59
2018-03-04T12:34:06.279Z,7.67
2018-03-04T12:35:06.284Z,7.69
2018-03-04T12:36:06.267Z,7.66
2018-03-04T12:37:06.452Z,7.75
2018-03-04T12:38:06.265Z,7.81
2018-03-04T12:39:06.265Z,7.82
2018-03-04T12:40:06.261Z,7.77
2018-03-04T12:41:06.257Z,7.82
2018-03-04T12:42:06.392Z,7.97
2018-03-04T12:43:06.303Z,8.07
2018-03-04T12:44:06.269Z,8.26
2018-03-04T12:45:06.266Z,8.48
2018-03-04T12:46:06.249Z,8.69
2018-03-04T12:47:06.276Z,8.99
2018-03-04T12:48:06.249Z,9.09
2018-03-04T12:49:06.243Z,9.27
2018-03-04T12:50:06.250Z,9.52
2018-03-04T12:51:06.244Z,9.73
2018-03-04T12:52:06.238Z,9.99
2018-03-04T12:53:06.241Z,10.22
2018-03-04T12:54:06.243Z,10.26
2018-03-04T12:55:06.253Z,10.25
2018-03-04T12:56:06.283Z,10.40
2018-03-04T12:57:06.246Z,10.19
2018-03-04T12:58:06.234Z,9.85
2018-03-04T12:59:06.229Z,9.70
2018-03-04T13:00:06.285Z,9.66
2018-03-04T13:01:06.227Z,9.45
2018-03-04T13:02:06.228Z,9.43
2018-03-04T13:03:06.224Z,9.18
2018-03-04T13:04:06.252Z,9.32
2018-03-04T13:05:06.222Z,9.38
2018-03-04T13:06:06.230Z,9.30
2018-03-04T13:07:06.903Z,9.30
2018-03-04T13:08:06.225Z,9.31
2018-03-04T13:09:06.217Z,9.45
2018-03-04T13:10:06.217Z,9.57
2018-03-04T13:11:08.128Z,9.61
2018-03-04T13:12:06.285Z,9.68
2018-03-04T13:13:06.217Z,9.67
2018-03-04T13:14:06.214Z,9.56
2018-03-04T13:15:06.212Z,9.70
2018-03-04T13:16:06.212Z,9.67
2018-03-04T13:17:06.229Z,9.88
2018-03-04T13:18:06.211Z,9.81
2018-03-04T13:19:06.206Z,9.88
2018-03-04T13:20:06.205Z,9.83
2018-03-04T13:21:06.207Z,9.76
2018-03-04T13:22:06.207Z,9.76
2018-03-04T13:23:06.212Z,9.57
2018-03-04T13:24:06.203Z,9.67
2018-03-04T13:25:06.201Z,9.61
2018-03-04T13:26:06.200Z,9.38
2018-03-04T13:27:06.203Z,9.48
2018-03-04T13:28:06.201Z,9.58
2018-03-04T13:29:06.194Z,9.39
2018-03-04T13:30:06.234Z,9.57
2018-03-04T13:31:06.218Z,9.57
2018-03-04T13:32:06.192Z,9.60
2018-03-04T13:33:06.441Z,9.58
2018-03-04T13:34:06.191Z,9.57
2018-03-04T13:35:06.193Z,9.24
2018-03-04T13:36:06.220Z,9.30
2018-03-04T13:37:06.191Z,9.40
2018-03-04T13:38:06.190Z,9.35
2018-03-04T13:39:06.241Z,9.45
2018-03-04T13:40:06.204Z,9.24
2018-03-04T13:41:06.247Z,9.31
2018-03-04T13:42:06.185Z,9.23
2018-03-04T13:43:06.206Z,9.10
2018-03-04T13:44:06.181Z,9.18
2018-03-04T13:45:06.193Z,9.09
2018-03-04T13:46:06.175Z,9.12
2018-03-04T13:47:06.186Z,9.05